Date,TemperatureHighF,TemperatureAvgF,TemperatureLowF,DewpointHighF,DewpointAvgF,DewpointLowF,HumidityHigh,HumidityAvg,HumidityLow,PressureMaxIn,PressureMinIn,WindSpeedMaxMPH,WindSpeedAvgMPH,GustSpeedMaxMPH,PrecipitationSumIn
2013-1-1,44,37,33,34,31,28,89,78,64,0.00,40.00,5,2,6,0.00
2013-1-2,48,38,34,29,28,26,81,69,44,0.00,40.00,0,0,2,0.00
2013-1-3,41,34,27,37,28,22,100,83,47,0.00,40.00,3,2,6,0.00
2013-1-4,45,40,37,43,39,37,100,95,85,0.00,40.00,3,2,8,0.00
2013-1-5,44,42,40,39,36,34,97,82,70,0.00,40.00,2,1,6,0.00
2013-1-6,44,42,40,43,42,40,100,99,96,0.00,40.00,3,2,8,0.00
2013-1-7,49,45,41,45,43,41,100,92,81,0.00,40.00,5,4,13,0.00
2013-1-8,51,49,45,51,48,41,100,97,87,0.00,40.00,8,5,18,0.01
2013-1-9,50,50,49,50,50,49,100,100,100,0.00,40.00,7,6,16,0.01
2013-1-10,38,37,36,36,36,36,100,96,93,0.00,40.00,2,2,5,0.00
2013-1-11,35,31,28,30,28,26,100,89,69,0.00,40.00,3,1,5,0.00
2013-1-12,37,30,25,28,25,22,100,81,58,0.00,40.00,5,1,8,0.00
2013-1-13,26,26,26,26,26,26,100,100,100,0.00,40.00,0,0,1,0.00
2013-1-14,37,34,33,29,28,27,84,77,68,0.00,40.00,3,1,6,0.00
2013-1-15,35,35,35,29,29,29,80,80,80,0.00,40.00,1,1,2,0.00
2013-1-17,35,32,30,35,32,30,100,100,100,0.00,40.00,1,0,3,0.00
2013-1-18,37,34,33,37,34,33,100,100,100,0.00,40.00,3,2,6,0.00
2013-1-19,35,34,32,35,34,32,100,100,100,0.00,40.00,2,1,3,0.00
2013-1-20,37,34,32,37,34,32,100,100,100,0.00,40.00,5,2,7,0.00
2013-1-21,35,33,31,35,33,31,100,100,100,0.00,40.00,3,2,7,0.00
2013-1-22,38,33,31,37,33,31,100,100,100,0.00,40.00,2,1,3,0.00
2013-1-23,42,40,38,42,38,35,100,93,84,0.00,40.00,2,2,6,0.00
2013-1-24,42,42,42,42,42,42,100,100,100,0.00,40.00,1,1,7,0.00
2013-1-25,44,43,42,43,42,42,100,98,95,0.00,40.00,1,0,3,0.00
2013-1-26,41,40,39,41,40,39,100,100,100,0.00,40.00,1,1,3,0.00
2013-1-27,42,41,40,41,40,38,100,94,88,0.00,40.00,6,3,10,0.00
2013-1-29,42,42,42,42,42,42,100,100,100,0.00,40.00,2,2,6,0.00
2013-1-31,49,48,46,47,46,45,100,94,85,0.00,40.00,3,2,7,0.00